createdAt,value
2023-07-10T00:01:46.500Z,9.77
2023-07-10T00:04:17.078Z,10.55
2023-07-10T00:06:45.317Z,9.95
2023-07-10T00:09:12.830Z,11.23
2023-07-10T00:11:43.033Z,10.80
2023-07-10T00:14:19.058Z,10.30
2023-07-10T00:16:46.542Z,11.15
2023-07-10T00:19:15.502Z,10.48
2023-07-10T00:21:43.235Z,11.10
2023-07-10T00:24:11.155Z,10.68
2023-07-10T00:26:39.701Z,11.23
2023-07-10T00:29:17.074Z,11.20
2023-07-10T00:31:44.677Z,11.80
2023-07-10T00:34:15.534Z,11.60
2023-07-10T00:36:43.785Z,12.57
2023-07-10T00:39:21.494Z,13.38
2023-07-10T00:41:51.410Z,13.55
2023-07-10T00:44:25.079Z,14.82
2023-07-10T00:46:57.357Z,14.07
2023-07-10T00:49:31.444Z,14.77
2023-07-10T00:52:02.516Z,13.65
2023-07-10T00:54:33.942Z,14.10
2023-07-10T00:57:04.073Z,15.00
2023-07-10T00:59:38.207Z,15.10
2023-07-10T01:02:19.849Z,14.07
2023-07-10T01:04:53.893Z,14.82
2023-07-10T01:07:23.654Z,16.30
2023-07-10T01:09:54.755Z,15.32
2023-07-10T01:12:22.969Z,14.98
2023-07-10T01:14:51.836Z,15.00
2023-07-10T01:17:20.628Z,16.98
2023-07-10T01:19:50.195Z,15.20
2023-07-10T01:22:19.066Z,16.00
2023-07-10T01:24:53.215Z,16.25
2023-07-10T01:27:23.303Z,15.82
2023-07-10T01:29:57.404Z,15.20
2023-07-10T01:32:28.972Z,15.80
2023-07-10T01:35:01.394Z,14.70
2023-07-10T01:37:30.335Z,15.77
2023-07-10T01:39:57.840Z,14.70
2023-07-10T01:42:25.601Z,15.65
2023-07-10T01:44:54.088Z,16.42
2023-07-10T01:47:22.457Z,14.98
2023-07-10T01:49:53.852Z,15.90
2023-07-10T01:52:23.064Z,15.60
2023-07-10T01:54:54.049Z,15.88
2023-07-10T01:57:24.960Z,15.95
2023-07-10T01:59:53.005Z,15.10
2023-07-10T02:02:20.808Z,13.70
2023-07-10T02:04:48.347Z,14.38
2023-07-10T02:07:15.823Z,15.65
2023-07-10T02:09:43.305Z,15.35
2023-07-10T02:12:12.439Z,15.18
2023-07-10T02:14:39.913Z,14.80
2023-07-10T02:17:07.828Z,14.55
2023-07-10T02:19:35.381Z,14.80
2023-07-10T02:22:02.895Z,14.07
2023-07-10T02:24:30.413Z,14.85
2023-07-10T02:26:58.096Z,14.82
2023-07-10T02:29:27.015Z,14.18
2023-07-10T02:31:54.617Z,13.13
2023-07-10T02:34:22.173Z,14.75
2023-07-10T02:36:49.658Z,12.88
2023-07-10T02:39:17.292Z,13.70
2023-07-10T02:41:44.795Z,13.35
2023-07-10T02:44:12.385Z,12.93
2023-07-10T02:46:41.310Z,13.15
2023-07-10T02:49:08.848Z,12.15
2023-07-10T02:51:36.386Z,12.77
2023-07-10T02:54:10.851Z,12.23
2023-07-10T02:56:38.370Z,12.63
2023-07-10T02:59:05.970Z,12.50
2023-07-10T03:01:33.718Z,11.60
2023-07-10T03:04:02.538Z,12.10
2023-07-10T03:06:30.011Z,12.52
2023-07-10T03:08:59.483Z,14.27
2023-07-10T03:11:27.103Z,13.93
2023-07-10T03:13:54.905Z,13.88
2023-07-10T03:16:22.464Z,14.48
2023-07-10T03:18:49.935Z,15.25
2023-07-10T03:21:18.722Z,14.98
2023-07-10T03:23:49.355Z,15.82
2023-07-10T03:26:17.027Z,15.52
2023-07-10T03:28:44.894Z,16.85
2023-07-10T03:31:12.735Z,14.57
2023-07-10T03:33:40.229Z,15.60
2023-07-10T03:36:09.880Z,17.02
2023-07-10T03:38:38.836Z,16.15
2023-07-10T03:41:06.929Z,16.85
2023-07-10T03:43:34.463Z,19.45
2023-07-10T03:46:02.268Z,22.45
2023-07-10T03:48:30.123Z,24.88
2023-07-10T03:50:57.751Z,25.83
2023-07-10T03:53:28.905Z,25.27
2023-07-10T03:55:57.945Z,25.23
2023-07-10T03:58:29.088Z,25.00
2023-07-10T04:01:00.338Z,24.60
2023-07-10T04:03:30.515Z,25.10
2023-07-10T04:05:59.319Z,23.67
2023-07-10T04:08:29.416Z,25.13
2023-07-10T04:11:00.861Z,24.65
2023-07-10T04:13:28.663Z,22.77
2023-07-10T04:16:01.273Z,23.40
2023-07-10T04:18:31.002Z,22.13
2023-07-10T04:20:59.577Z,20.85
2023-07-10T04:23:27.792Z,19.85
2023-07-10T04:25:55.941Z,19.50
2023-07-10T04:28:25.211Z,18.20
2023-07-10T04:30:53.906Z,19.00
2023-07-10T04:33:22.317Z,20.38
2023-07-10T04:35:55.831Z,19.85
2023-07-10T04:38:25.096Z,17.73
2023-07-10T04:40:53.637Z,18.23
2023-07-10T04:43:21.655Z,19.70
2023-07-10T04:45:51.000Z,19.92
2023-07-10T04:48:18.548Z,21.42
2023-07-10T04:50:48.580Z,20.10
2023-07-10T04:53:16.261Z,20.00
2023-07-10T04:55:44.574Z,19.05
2023-07-10T04:58:12.564Z,18.10
2023-07-10T05:00:40.089Z,19.02
2023-07-10T05:03:09.778Z,18.50
2023-07-10T05:05:37.775Z,17.02
2023-07-10T05:08:05.866Z,16.30
2023-07-10T05:10:33.494Z,17.05
2023-07-10T05:13:00.972Z,16.73
2023-07-10T05:15:28.452Z,16.65
2023-07-10T05:17:56.044Z,16.50
2023-07-10T05:20:25.038Z,17.10
2023-07-10T05:22:52.776Z,15.15
2023-07-10T05:25:21.045Z,14.70
2023-07-10T05:27:48.557Z,14.70
2023-07-10T05:30:16.171Z,15.50
2023-07-10T05:32:43.731Z,15.48
2023-07-10T05:35:11.320Z,16.00
2023-07-10T05:37:40.190Z,14.75
2023-07-10T05:40:09.157Z,14.93
2023-07-10T05:42:36.621Z,14.93
2023-07-10T05:45:04.123Z,14.48
2023-07-10T05:47:31.631Z,15.18
2023-07-10T05:49:59.220Z,14.88
2023-07-10T05:52:26.682Z,14.60
2023-07-10T05:54:55.516Z,13.88
2023-07-10T05:57:23.950Z,14.40
2023-07-10T05:59:51.485Z,13.52
2023-07-10T06:02:19.048Z,13.63
2023-07-10T06:04:46.517Z,12.95
2023-07-10T06:07:14.003Z,13.05
2023-07-10T06:09:41.450Z,12.80
2023-07-10T06:12:10.892Z,12.45
2023-07-10T06:14:38.415Z,12.68
2023-07-10T06:17:06.536Z,12.38
2023-07-10T06:19:34.024Z,12.20
2023-07-10T06:22:09.267Z,13.13
2023-07-10T06:24:36.734Z,10.90
2023-07-10T06:27:04.874Z,9.18
2023-07-10T06:29:35.624Z,6.40
2023-07-10T06:32:03.351Z,6.35
2023-07-10T06:34:31.241Z,6.40
2023-07-10T06:36:58.728Z,6.32
2023-07-10T06:39:28.763Z,7.40
2023-07-10T06:41:56.303Z,6.75
2023-07-10T06:44:23.862Z,6.82
2023-07-10T06:46:52.722Z,6.82
2023-07-10T06:49:20.179Z,7.50
2023-07-10T06:51:47.698Z,7.15
2023-07-10T06:54:15.186Z,7.13
2023-07-10T06:56:42.659Z,6.78
2023-07-10T06:59:10.135Z,7.22
2023-07-10T07:01:37.646Z,7.13
2023-07-10T07:04:06.572Z,6.20
2023-07-10T07:06:34.123Z,6.70
2023-07-10T07:09:01.608Z,5.95
2023-07-10T07:11:29.073Z,6.13
2023-07-10T07:13:56.648Z,7.22
2023-07-10T07:16:24.171Z,5.93
2023-07-10T07:19:02.626Z,6.10
2023-07-10T07:21:39.886Z,6.35
2023-07-10T07:24:07.617Z,6.40
2023-07-10T07:26:35.163Z,7.38
2023-07-10T07:29:02.761Z,7.20
2023-07-10T07:31:30.336Z,6.63
2023-07-10T07:33:57.974Z,8.25
2023-07-10T07:36:25.478Z,6.40
2023-07-10T07:38:54.338Z,7.03
2023-07-10T07:41:21.837Z,6.50
2023-07-10T07:43:50.411Z,5.72
2023-07-10T07:46:17.907Z,7.03
2023-07-10T07:48:45.415Z,5.97
2023-07-10T07:51:13.011Z,7.18
2023-07-10T07:53:42.465Z,6.80
2023-07-10T07:56:11.769Z,6.20
2023-07-10T07:58:39.295Z,6.05
2023-07-10T08:01:06.960Z,6.50
2023-07-10T08:03:35.092Z,6.82
2023-07-10T08:06:03.101Z,6.50
2023-07-10T08:08:30.791Z,6.90
2023-07-10T08:10:58.336Z,6.47
2023-07-10T08:13:27.303Z,7.13
2023-07-10T08:15:54.989Z,6.60
2023-07-10T08:18:22.599Z,7.07
2023-07-10T08:20:50.084Z,6.93
2023-07-10T08:23:17.949Z,6.20
2023-07-10T08:25:45.474Z,6.18
2023-07-10T08:28:12.992Z,6.30
2023-07-10T08:30:41.977Z,6.70
2023-07-10T08:33:11.637Z,6.00
2023-07-10T08:35:39.259Z,6.88
2023-07-10T08:38:07.264Z,7.10
2023-07-10T08:40:36.137Z,7.90
2023-07-10T08:43:23.784Z,7.97
2023-07-10T08:45:52.914Z,9.30
2023-07-10T08:48:28.897Z,7.25
2023-07-10T08:51:00.816Z,6.78
2023-07-10T08:53:32.785Z,7.15
2023-07-10T08:56:05.627Z,6.28
2023-07-10T08:58:38.406Z,6.10
2023-07-10T09:01:16.282Z,4.85
2023-07-10T09:03:47.983Z,5.40
2023-07-10T09:06:20.366Z,4.80
2023-07-10T09:08:52.214Z,4.70
2023-07-10T09:11:20.909Z,4.65
2023-07-10T09:13:55.208Z,4.07
2023-07-10T09:16:24.940Z,4.50
2023-07-10T09:18:56.048Z,4.35
2023-07-10T09:21:26.985Z,4.22
2023-07-10T09:23:54.557Z,4.53
2023-07-10T09:26:27.830Z,4.68
2023-07-10T09:29:03.367Z,4.30
2023-07-10T09:31:44.341Z,3.85
2023-07-10T09:34:13.164Z,4.10
2023-07-10T09:36:41.004Z,3.80
2023-07-10T09:39:08.644Z,3.00
2023-07-10T09:41:39.655Z,3.55
2023-07-10T09:44:24.260Z,3.22
2023-07-10T09:47:07.482Z,2.42
2023-07-10T09:49:39.049Z,2.90
2023-07-10T09:52:17.691Z,2.60
2023-07-10T09:54:45.179Z,3.03
2023-07-10T09:57:15.457Z,3.70
2023-07-10T09:59:49.336Z,3.72
2023-07-10T10:02:21.467Z,3.80
2023-07-10T10:04:54.942Z,4.20
2023-07-10T10:07:24.000Z,4.57
2023-07-10T10:10:22.798Z,4.80
2023-07-10T10:12:54.118Z,4.82
2023-07-10T10:15:30.068Z,5.10
2023-07-10T10:18:03.279Z,5.65
2023-07-10T10:20:34.344Z,4.85
2023-07-10T10:23:02.156Z,5.70
2023-07-10T10:25:36.213Z,4.65
2023-07-10T10:28:19.585Z,4.68
2023-07-10T10:30:51.031Z,4.80
2023-07-10T10:33:28.748Z,4.00
2023-07-10T10:35:58.430Z,3.50
2023-07-10T10:38:37.365Z,4.10
2023-07-10T10:41:18.776Z,3.75
2023-07-10T10:43:55.508Z,3.50
2023-07-10T10:46:37.023Z,3.42
2023-07-10T10:49:34.320Z,3.85
2023-07-10T10:52:11.295Z,2.60
2023-07-10T10:54:49.498Z,2.50
2023-07-10T10:57:30.246Z,2.55
2023-07-10T11:00:12.644Z,2.95
2023-07-10T11:02:56.380Z,2.75
2023-07-10T11:05:36.332Z,2.63
2023-07-10T11:08:07.544Z,2.60
2023-07-10T11:10:38.098Z,2.55
2023-07-10T11:13:07.054Z,2.40
2023-07-10T11:15:35.543Z,2.38
2023-07-10T11:18:03.684Z,2.42
2023-07-10T11:20:32.630Z,2.35
2023-07-10T11:23:01.636Z,2.70
2023-07-10T11:25:34.672Z,2.38
2023-07-10T11:28:19.604Z,2.67
2023-07-10T11:30:47.375Z,2.90
2023-07-10T11:33:19.790Z,2.80
2023-07-10T11:36:14.848Z,2.47
2023-07-10T11:41:29.739Z,2.60
2023-07-10T11:44:20.775Z,2.40
2023-07-10T11:47:02.603Z,2.45
2023-07-10T11:49:45.593Z,2.58
2023-07-10T11:52:33.895Z,2.50
2023-07-10T11:55:07.326Z,2.35
2023-07-10T11:57:36.721Z,2.60
2023-07-10T12:00:20.821Z,2.35
2023-07-10T12:02:50.549Z,2.38
2023-07-10T12:05:21.984Z,2.33
2023-07-10T12:08:00.046Z,2.22
2023-07-10T12:10:29.922Z,2.67
2023-07-10T12:12:58.732Z,2.20
2023-07-10T12:15:28.081Z,2.40
2023-07-10T12:17:56.768Z,2.50
2023-07-10T12:20:29.587Z,2.45
2023-07-10T12:23:05.585Z,2.78
2023-07-10T12:25:33.066Z,2.10
2023-07-10T12:28:25.074Z,2.25
2023-07-10T12:30:52.369Z,2.33
2023-07-10T12:33:31.994Z,2.38
2023-07-10T12:36:04.523Z,2.40
2023-07-10T12:38:34.832Z,2.53
2023-07-10T12:41:04.227Z,2.08
2023-07-10T12:43:31.777Z,2.25
2023-07-10T12:46:00.292Z,2.15
2023-07-10T12:48:31.725Z,2.17
2023-07-10T12:51:02.414Z,2.35
2023-07-10T12:53:36.430Z,2.42
2023-07-10T12:56:10.102Z,1.80
2023-07-10T12:58:38.682Z,1.92
2023-07-10T13:01:20.897Z,2.10
2023-07-10T13:04:01.277Z,1.90
2023-07-10T13:06:28.825Z,2.00
2023-07-10T13:09:01.837Z,2.45
2023-07-10T13:11:41.379Z,2.15
2023-07-10T13:14:17.120Z,2.35
2023-07-10T13:16:46.495Z,2.10
2023-07-10T13:19:13.988Z,2.13
2023-07-10T13:21:41.469Z,2.17
2023-07-10T13:24:10.357Z,2.20
2023-07-10T13:26:37.806Z,2.00
2023-07-10T13:29:13.176Z,2.20
2023-07-10T13:31:41.044Z,2.00
2023-07-10T13:34:12.564Z,1.90
2023-07-10T13:36:41.574Z,2.35
2023-07-10T13:39:17.280Z,2.20
2023-07-10T13:41:46.326Z,2.28
2023-07-10T13:44:14.666Z,2.20
2023-07-10T13:46:42.621Z,2.28
2023-07-10T13:49:13.847Z,2.30
2023-07-10T13:51:42.435Z,2.00
2023-07-10T13:54:10.421Z,2.05
2023-07-10T13:56:42.247Z,2.38
2023-07-10T13:59:15.805Z,2.50
2023-07-10T14:01:43.385Z,1.88
2023-07-10T14:04:11.064Z,2.28
2023-07-10T14:06:40.686Z,2.20
2023-07-10T14:09:13.538Z,2.35
2023-07-10T14:11:43.568Z,1.85
2023-07-10T14:14:15.241Z,1.92
2023-07-10T14:16:43.280Z,2.00
2023-07-10T14:19:16.710Z,1.95
2023-07-10T14:21:44.663Z,1.90
2023-07-10T14:24:12.157Z,2.10
2023-07-10T14:26:40.046Z,2.40
2023-07-10T14:29:14.933Z,2.35
2023-07-10T14:31:42.481Z,2.03
2023-07-10T14:34:09.981Z,2.20
2023-07-10T14:36:37.636Z,2.70
2023-07-10T14:39:05.209Z,2.17
2023-07-10T14:41:32.747Z,2.70
2023-07-10T14:44:00.416Z,2.20
2023-07-10T14:46:34.543Z,2.40
2023-07-10T14:51:29.890Z,2.20
2023-07-10T14:53:57.398Z,2.53
2023-07-10T14:56:24.971Z,2.33
2023-07-10T14:58:52.420Z,2.10
2023-07-10T15:01:20.004Z,2.42
2023-07-10T15:03:49.084Z,2.35
2023-07-10T15:06:26.676Z,2.35
2023-07-10T15:08:54.455Z,2.30
2023-07-10T15:11:23.716Z,2.05
2023-07-10T15:13:52.096Z,2.38
2023-07-10T15:16:21.819Z,2.38
2023-07-10T15:18:51.298Z,2.00
2023-07-10T15:21:21.694Z,2.10
2023-07-10T15:23:49.463Z,2.05
2023-07-10T15:26:17.780Z,2.05
2023-07-10T15:28:45.284Z,2.45
2023-07-10T15:31:14.576Z,2.47
2023-07-10T15:33:45.236Z,2.47
2023-07-10T15:36:19.206Z,2.20
2023-07-10T15:38:47.211Z,2.10
2023-07-10T15:41:22.794Z,2.30
2023-07-10T15:43:50.429Z,2.40
2023-07-10T15:46:18.357Z,2.00
2023-07-10T15:48:45.924Z,2.35
2023-07-10T15:51:23.575Z,2.28
2023-07-10T15:53:51.190Z,2.22
2023-07-10T15:56:18.737Z,2.28
2023-07-10T15:58:46.974Z,2.22
2023-07-10T16:01:19.221Z,2.88
2023-07-10T16:03:51.311Z,2.50
2023-07-10T16:06:20.196Z,2.47
2023-07-10T16:08:48.095Z,2.80
2023-07-10T16:11:18.414Z,2.70
2023-07-10T16:13:48.654Z,2.53
2023-07-10T16:16:16.692Z,2.75
2023-07-10T16:18:44.248Z,2.33
2023-07-10T16:21:16.140Z,2.55
2023-07-10T16:23:45.979Z,2.50
2023-07-10T16:26:15.203Z,2.53
2023-07-10T16:28:43.256Z,2.50
2023-07-10T16:31:14.153Z,2.45
2023-07-10T16:33:41.688Z,2.50
2023-07-10T16:36:13.464Z,2.75
2023-07-10T16:38:41.007Z,2.58
2023-07-10T16:41:15.687Z,2.63
2023-07-10T16:43:43.742Z,2.30
2023-07-10T16:46:12.843Z,2.05
2023-07-10T16:48:41.352Z,2.40
2023-07-10T16:51:17.724Z,2.45
2023-07-10T16:53:45.644Z,2.63
2023-07-10T16:56:17.004Z,2.70
2023-07-10T16:58:45.432Z,2.60
2023-07-10T17:01:19.543Z,2.30
2023-07-10T17:03:49.438Z,2.30
2023-07-10T17:06:18.683Z,2.50
2023-07-10T17:08:46.223Z,2.67
2023-07-10T17:11:22.165Z,2.80
2023-07-10T17:13:49.757Z,2.55
2023-07-10T17:16:17.386Z,2.47
2023-07-10T17:18:44.890Z,2.92
2023-07-10T17:21:14.280Z,2.75
2023-07-10T17:23:43.204Z,2.60
2023-07-10T17:26:17.929Z,2.20
2023-07-10T17:28:46.460Z,2.20
2023-07-10T17:31:24.270Z,2.33
2023-07-10T17:33:53.565Z,2.65
2023-07-10T17:36:21.860Z,2.47
2023-07-10T17:38:49.968Z,2.90
2023-07-10T17:41:21.967Z,2.13
2023-07-10T17:43:55.121Z,2.40
2023-07-10T17:46:22.854Z,2.80
2023-07-10T17:48:50.570Z,2.50
2023-07-10T17:51:26.197Z,2.65
2023-07-10T17:53:54.824Z,2.28
2023-07-10T17:56:24.893Z,2.35
2023-07-10T17:58:54.684Z,2.20
2023-07-10T18:01:25.548Z,2.35
2023-07-10T18:03:56.844Z,2.45
2023-07-10T18:06:24.622Z,2.47
2023-07-10T18:08:52.153Z,2.30
2023-07-10T18:11:23.582Z,2.50
2023-07-10T18:13:53.864Z,2.28
2023-07-10T18:16:21.426Z,2.40
2023-07-10T18:18:49.032Z,2.30
2023-07-10T18:21:21.593Z,2.80
2023-07-10T18:23:50.078Z,2.30
2023-07-10T18:26:18.992Z,2.58
2023-07-10T18:28:47.064Z,2.30
2023-07-10T18:31:19.988Z,2.40
2023-07-10T18:33:48.216Z,2.40
2023-07-10T18:36:17.275Z,2.80
2023-07-10T18:38:45.122Z,2.70
2023-07-10T18:41:17.878Z,2.80
2023-07-10T18:43:46.625Z,2.42
2023-07-10T18:46:15.354Z,2.75
2023-07-10T18:48:44.654Z,2.58
2023-07-10T18:51:17.101Z,2.58
2023-07-10T18:53:44.846Z,2.38
2023-07-10T18:56:12.725Z,2.25
2023-07-10T18:58:42.381Z,2.42
2023-07-10T19:01:10.437Z,2.60
2023-07-10T19:03:38.542Z,2.65
2023-07-10T19:06:18.397Z,2.47
2023-07-10T19:08:46.762Z,2.85
2023-07-10T19:11:15.995Z,2.70
2023-07-10T19:13:44.154Z,3.00
2023-07-10T19:16:22.238Z,2.75
2023-07-10T19:18:54.205Z,2.92
2023-07-10T19:21:23.112Z,2.80
2023-07-10T19:23:50.702Z,2.63
2023-07-10T19:26:19.354Z,2.83
2023-07-10T19:28:47.406Z,2.65
2023-07-10T19:31:16.797Z,2.85
2023-07-10T19:33:47.663Z,2.60
2023-07-10T19:36:18.987Z,2.30
2023-07-10T19:38:47.973Z,3.35
2023-07-10T19:41:15.683Z,2.78
2023-07-10T19:43:43.721Z,2.70
2023-07-10T19:46:16.855Z,3.25
2023-07-10T19:48:44.918Z,3.15
2023-07-10T19:51:12.585Z,2.67
2023-07-10T19:53:40.111Z,3.05
2023-07-10T19:56:21.324Z,2.63
2023-07-10T19:58:51.393Z,2.72
2023-07-10T20:01:21.171Z,2.60
2023-07-10T20:03:48.833Z,2.70
2023-07-10T20:06:25.536Z,3.13
2023-07-10T20:08:53.767Z,2.72
2023-07-10T20:11:22.962Z,2.80
2023-07-10T20:13:50.883Z,2.80
2023-07-10T20:16:23.536Z,2.80
2023-07-10T20:18:51.060Z,2.63
2023-07-10T20:21:19.517Z,2.80
2023-07-10T20:23:47.422Z,2.70
2023-07-10T20:26:16.870Z,2.65
2023-07-10T20:28:46.532Z,2.90
2023-07-10T20:31:16.303Z,2.72
2023-07-10T20:33:44.395Z,2.50
2023-07-10T20:36:25.491Z,2.50
2023-07-10T20:38:54.018Z,4.60
2023-07-10T20:41:23.658Z,2.92
2023-07-10T20:43:52.500Z,3.10
2023-07-10T20:46:22.702Z,2.90
2023-07-10T20:48:51.252Z,2.60
2023-07-10T20:51:23.613Z,3.00
2023-07-10T20:53:51.824Z,3.22
2023-07-10T20:56:25.375Z,3.38
2023-07-10T20:58:55.111Z,3.17
2023-07-10T21:01:26.865Z,3.10
2023-07-10T21:03:54.776Z,3.17
2023-07-10T21:06:25.451Z,3.58
2023-07-10T21:08:54.912Z,2.83
2023-07-10T21:11:24.663Z,3.22
2023-07-10T21:13:55.896Z,2.90
2023-07-10T21:16:26.218Z,2.90
2023-07-10T21:18:54.462Z,3.00
2023-07-10T21:21:22.378Z,2.95
2023-07-10T21:23:50.809Z,3.15
2023-07-10T21:26:20.410Z,3.72
2023-07-10T21:28:49.497Z,2.88
2023-07-10T21:31:20.798Z,3.30
2023-07-10T21:33:51.264Z,3.20
2023-07-10T21:36:20.372Z,3.00
2023-07-10T21:38:48.226Z,3.08
2023-07-10T21:41:18.676Z,2.70
2023-07-10T21:43:48.335Z,3.10
2023-07-10T21:46:24.304Z,2.95
2023-07-10T21:48:52.417Z,2.88
2023-07-10T21:51:20.274Z,2.92
2023-07-10T21:53:48.129Z,3.40
2023-07-10T21:56:18.617Z,3.20
2023-07-10T21:58:47.944Z,3.17
2023-07-10T22:01:18.603Z,2.80
2023-07-10T22:03:46.944Z,3.00
2023-07-10T22:06:16.114Z,3.20
2023-07-10T22:08:44.102Z,3.22
2023-07-10T22:11:14.952Z,3.25
2023-07-10T22:13:43.274Z,3.17
2023-07-10T22:16:16.622Z,3.03
2023-07-10T22:18:46.963Z,3.08
2023-07-10T22:21:15.261Z,3.42
2023-07-10T22:23:42.767Z,3.58
2023-07-10T22:26:11.455Z,2.80
2023-07-10T22:28:39.651Z,3.00
2023-07-10T22:31:11.635Z,3.25
2023-07-10T22:33:40.177Z,3.00
2023-07-10T22:36:09.496Z,3.50
2023-07-10T22:38:37.087Z,3.20
2023-07-10T22:41:07.920Z,2.95
2023-07-10T22:43:41.491Z,2.97
2023-07-10T22:46:14.545Z,3.05
2023-07-10T22:48:42.333Z,3.03
2023-07-10T22:51:14.429Z,2.80
2023-07-10T22:53:42.189Z,2.70
2023-07-10T22:56:11.912Z,2.88
2023-07-10T22:58:39.477Z,3.15
2023-07-10T23:01:07.070Z,3.05
2023-07-10T23:03:35.031Z,2.70
2023-07-10T23:06:04.211Z,3.33
2023-07-10T23:08:34.675Z,3.30
2023-07-10T23:11:04.385Z,3.22
2023-07-10T23:13:32.282Z,3.50
2023-07-10T23:16:00.163Z,3.03
2023-07-10T23:18:27.773Z,3.40
2023-07-10T23:20:55.280Z,3.22
2023-07-10T23:23:22.784Z,3.22
2023-07-10T23:25:51.660Z,3.22
2023-07-10T23:28:19.208Z,3.80
2023-07-10T23:30:46.836Z,3.65
2023-07-10T23:33:15.335Z,3.45
2023-07-10T23:35:43.348Z,3.10
2023-07-10T23:38:12.152Z,3.45
2023-07-10T23:40:39.806Z,3.55
2023-07-10T23:43:08.638Z,3.17
2023-07-10T23:45:36.168Z,3.60
2023-07-10T23:48:03.804Z,3.22
2023-07-10T23:50:31.380Z,3.13
2023-07-10T23:52:58.898Z,3.40
2023-07-10T23:55:26.412Z,3.70
2023-07-10T23:57:53.916Z,3.15
